Time;durP1;ratioP1;P1;durP2;ratioP2;P2;SDS_P1;SDS_P2;PMS_P1;PMS_P2;Temp;Humidity;BMP_temperature;BMP_pressure;BME280_temperature;BME280_humidity;BME280_pressure;Samples;Min_cycle;Max_cycle;Signal;HPM_P1;HPM_P2
2022/07/14 04:18:13;;;;;;;4.30;2.75;;;;;;;19.57;46.01;101628.16;5064825;28;20921;-82
2022/07/14 04:20:38;;;;;;;4.53;2.55;;;;;;;19.75;46.04;101625.97;5049597;28;20037;-82
2022/07/14 04:23:04;;;;;;;20.10;3.67;;;;;;;19.97;45.49;101628.75;5065989;28;20025;-80
2022/07/14 04:25:30;;;;;;;16.08;3.42;;;;;;;20.20;44.91;101626.22;5049963;28;20037;-80
2022/07/14 04:27:55;;;;;;;11.63;3.50;;;;;;;20.38;45.06;101640.63;5049042;28;20029;-87
2022/07/14 04:30:21;;;;;;;31.35;3.92;;;;;;;20.43;44.65;101614.88;5049936;28;20028;-82
2022/07/14 04:32:46;;;;;;;16.42;3.65;;;;;;;20.60;44.23;101629.38;5065739;28;20505;-82
2022/07/14 04:35:12;;;;;;;8.63;2.97;;;;;;;20.76;44.37;101629.06;5035582;28;20041;-82
2022/07/14 04:37:38;;;;;;;9.35;3.10;;;;;;;20.69;43.90;101607.66;5051349;28;20041;-87
2022/07/14 04:40:04;;;;;;;3.80;2.83;;;;;;;20.91;43.24;101615.56;5062265;28;20460;-86
2022/07/14 04:42:30;;;;;;;7.13;2.55;;;;;;;21.11;43.15;101635.09;5036346;28;20031;-88
2022/07/14 04:44:56;;;;;;;3.92;2.80;;;;;;;21.21;43.62;101635.22;5051767;28;20486;-87
2022/07/14 04:47:21;;;;;;;4.00;2.78;;;;;;;21.28;43.02;101640.88;5052641;28;20117;-87
2022/07/14 04:52:31;;;;;;;7.15;2.85;;;;;;;21.66;43.19;101635.22;5048041;28;20477;-89
2022/07/14 04:54:56;;;;;;;3.65;2.80;;;;;;;21.82;42.47;101645.34;5040911;28;20040;-84
2022/07/14 04:57:22;;;;;;;5.03;3.00;;;;;;;21.70;42.36;101610.31;5053210;28;20048;-95
2022/07/14 04:59:47;;;;;;;7.15;2.80;;;;;;;21.91;42.73;101640.19;5017431;28;20064;-83
2022/07/14 05:02:13;;;;;;;9.25;2.88;;;;;;;21.95;42.58;101631.09;5041535;28;20517;-83
2022/07/14 05:04:41;;;;;;;3.47;3.00;;;;;;;22.15;42.07;101641.84;5053769;28;20076;-95
2022/07/14 05:07:07;;;;;;;5.15;3.10;;;;;;;22.16;42.75;101632.97;5036604;28;20040;-87
2022/07/14 05:09:33;;;;;;;7.13;2.75;;;;;;;22.46;42.46;101643.63;5035723;28;20033;-91
2022/07/14 05:12:02;;;;;;;4.40;3.00;;;;;;;22.59;41.99;101646.06;5049964;28;20039;-85
2022/07/14 05:14:29;;;;;;;6.88;2.88;;;;;;;22.64;41.87;101625.41;5051516;28;20024;-85
2022/07/14 05:16:55;;;;;;;7.18;2.88;;;;;;;22.83;41.91;101646.66;5050071;28;20706;-89
2022/07/14 05:19:20;;;;;;;5.95;2.47;;;;;;;22.65;41.45;101594.59;5087357;22;20012;-90
2022/07/14 05:21:46;;;;;;;4.22;2.60;;;;;;;22.78;41.44;101629.53;5010395;28;20107;-89
2022/07/14 05:24:12;;;;;;;4.00;2.70;;;;;;;22.65;41.39;101597.25;5005982;28;20045;-91
2022/07/14 05:26:38;;;;;;;4.50;2.80;;;;;;;22.88;41.17;101631.28;5022677;28;20106;-82
2022/07/14 05:29:04;;;;;;;6.03;2.63;;;;;;;22.94;41.27;101618.53;5006898;28;20037;-82
2022/07/14 05:31:29;;;;;;;4.97;2.92;;;;;;;23.09;41.04;101641.81;5006495;28;20395;-82
2022/07/14 05:33:56;;;;;;;4.82;2.97;;;;;;;23.22;41.70;101653.97;5005738;28;20033;-87
2022/07/14 05:36:23;;;;;;;4.72;2.83;;;;;;;23.44;41.07;101648.50;5003946;28;20033;-81
2022/07/14 05:38:48;;;;;;;7.63;3.00;;;;;;;23.58;41.18;101650.75;4987999;28;20061;-81
2022/07/14 05:41:14;;;;;;;5.68;3.03;;;;;;;23.60;40.52;101642.75;5001620;28;20026;-89
2022/07/14 05:43:41;;;;;;;5.07;3.13;;;;;;;23.49;39.94;101630.41;5021241;28;20025;-88
2022/07/14 05:46:07;;;;;;;4.63;2.88;;;;;;;23.65;40.83;101646.63;5018847;28;20044;-86
2022/07/14 05:48:33;;;;;;;7.53;3.25;;;;;;;23.79;40.31;101637.47;4986837;28;20025;-84
2022/07/14 05:51:12;;;;;;;5.30;3.50;;;;;;;23.90;40.06;101640.03;4988626;28;20719;-79
2022/07/14 05:53:38;;;;;;;11.35;4.82;;;;;;;24.06;39.86;101649.22;4998046;28;20951;-79
2022/07/14 05:56:05;;;;;;;9.23;3.80;;;;;;;24.08;40.68;101642.81;4986699;28;20034;-79
2022/07/14 05:58:31;;;;;;;7.30;3.85;;;;;;;24.26;39.09;101646.44;5002530;28;20060;-88
2022/07/14 06:00:57;;;;;;;7.20;3.65;;;;;;;24.33;39.26;101649.41;5002432;28;20499;-82
2022/07/14 06:03:22;;;;;;;6.15;3.05;;;;;;;24.44;38.96;101635.19;5002602;28;20033;-81
2022/07/14 06:05:48;;;;;;;4.55;3.30;;;;;;;24.56;38.77;101649.94;4993765;28;20227;-83
2022/07/14 06:08:13;;;;;;;5.75;3.47;;;;;;;24.69;38.85;101653.13;5019551;28;20477;-92
2022/07/14 06:10:39;;;;;;;7.72;4.30;;;;;;;24.61;38.79;101634.47;4986216;28;20603;-88
2022/07/14 06:13:04;;;;;;;6.18;3.95;;;;;;;24.76;38.16;101656.03;5002722;28;20120;-88
2022/07/14 06:18:05;;;;;;;7.78;3.53;;;;;;;24.79;38.22;101632.78;5163403;22;20271;-85
2022/07/14 06:20:31;;;;;;;4.30;3.05;;;;;;;24.85;37.98;101640.13;5025212;28;20048;-89
2022/07/14 06:22:56;;;;;;;4.05;2.95;;;;;;;24.88;37.77;101616.03;5015356;28;20061;-84
2022/07/14 06:25:22;;;;;;;7.82;3.80;;;;;;;25.21;38.15;101653.56;5021503;28;20053;-80
2022/07/14 06:27:47;;;;;;;7.80;3.85;;;;;;;25.19;37.68;101629.06;5021386;28;20029;-82
2022/07/14 06:30:13;;;;;;;4.20;3.35;;;;;;;25.30;36.98;101636.81;5013702;28;20086;-85
2022/07/14 06:32:39;;;;;;;7.43;3.30;;;;;;;25.49;37.17;101645.66;5035072;28;20033;-82
2022/07/14 06:35:06;;;;;;;5.53;3.05;;;;;;;25.55;36.88;101635.25;5018413;28;20563;-87
2022/07/14 06:37:34;;;;;;;6.28;3.38;;;;;;;25.67;36.30;101639.41;4982881;28;20025;-83
2022/07/14 06:40:04;;;;;;;7.43;3.65;;;;;;;25.65;36.03;101630.75;5035804;28;20394;-82
2022/07/14 06:42:29;;;;;;;6.32;3.55;;;;;;;25.80;35.85;101633.75;5037733;28;20079;-85
2022/07/14 06:44:55;;;;;;;7.95;3.55;;;;;;;25.85;35.97;101639.44;5006266;28;20026;-81
2022/07/14 06:47:20;;;;;;;7.30;4.05;;;;;;;25.86;36.51;101627.00;5038543;28;20442;-84
2022/07/14 06:49:46;;;;;;;3.88;3.25;;;;;;;26.03;36.01;101629.69;5022024;28;20542;-82
2022/07/14 06:52:11;;;;;;;9.25;2.95;;;;;;;26.08;35.48;101609.84;5036154;28;20037;-82
2022/07/14 06:54:38;;;;;;;7.35;3.40;;;;;;;26.33;35.13;101627.63;5025327;28;20030;-90
2022/07/14 06:57:03;;;;;;;6.60;3.20;;;;;;;26.29;35.41;101620.97;5005668;28;20048;-82
2022/07/14 06:59:29;;;;;;;3.50;2.70;;;;;;;26.30;35.61;101614.66;5008268;28;20045;-86
2022/07/14 07:01:54;;;;;;;9.75;3.70;;;;;;;26.47;35.18;101616.50;5007598;28;20067;-87
2022/07/14 07:04:20;;;;;;;5.95;3.25;;;;;;;26.55;34.64;101613.91;5005500;28;20030;-85
2022/07/14 07:06:45;;;;;;;5.43;3.40;;;;;;;26.69;34.58;101612.50;5007325;28;20084;-88
2022/07/14 07:09:15;;;;;;;4.63;3.20;;;;;;;26.77;34.73;101615.22;5021242;28;20072;-81
2022/07/14 07:11:41;;;;;;;6.28;3.03;;;;;;;26.84;35.01;101602.97;5022397;28;20537;-83
2022/07/14 07:14:07;;;;;;;7.72;4.82;;;;;;;26.93;35.79;101606.47;5020552;28;20105;-81
2022/07/14 07:16:33;;;;;;;6.07;3.38;;;;;;;26.95;34.65;101599.22;5002328;28;20124;-89
2022/07/14 07:18:59;;;;;;;12.80;10.07;;;;;;;27.05;34.96;101599.13;5016737;28;20045;-82
2022/07/14 07:21:25;;;;;;;6.13;3.97;;;;;;;27.18;34.88;101606.66;5018416;28;20486;-91
2022/07/14 07:23:50;;;;;;;4.88;3.17;;;;;;;27.37;33.88;101611.69;5003128;28;20068;-86
2022/07/14 07:26:16;;;;;;;6.65;3.63;;;;;;;27.44;33.84;101610.06;5020745;28;20490;-82
2022/07/14 07:28:41;;;;;;;8.60;3.30;;;;;;;27.61;33.19;101602.97;5023013;28;20029;-86
2022/07/14 07:31:07;;;;;;;7.85;3.40;;;;;;;27.77;32.36;101607.53;4992324;28;20489;-81
2022/07/14 07:33:33;;;;;;;10.98;3.75;;;;;;;27.79;32.55;101592.22;5024037;28;20037;-87
2022/07/14 07:35:59;;;;;;;5.20;3.50;;;;;;;27.94;32.04;101601.22;5029138;28;20032;-82
2022/07/14 07:38:25;;;;;;;8.82;3.90;;;;;;;28.02;31.43;101606.53;5026715;28;20043;-83
2022/07/14 07:40:53;;;;;;;7.97;3.53;;;;;;;28.09;31.82;101610.19;5040455;28;20038;-88
2022/07/14 07:43:21;;;;;;;35.05;20.08;;;;;;;28.21;32.11;101606.22;5019398;28;20482;-82
2022/07/14 07:45:47;;;;;;;15.77;9.35;;;;;;;28.31;30.46;101602.56;5007023;28;20454;-82
2022/07/14 07:48:13;;;;;;;8.38;5.10;;;;;;;28.48;30.48;101597.06;5034248;28;20057;-82
2022/07/14 07:50:41;;;;;;;31.20;20.70;;;;;;;28.64;30.51;101588.25;5017423;28;20507;-83
2022/07/14 07:53:07;;;;;;;39.95;33.67;;;;;;;28.78;30.30;101587.53;5039122;28;20025;-82
2022/07/14 07:55:33;;;;;;;5.68;2.90;;;;;;;28.67;30.16;101563.94;5020164;28;20029;-86
2022/07/14 07:57:59;;;;;;;8.00;3.90;;;;;;;28.92;30.28;101596.69;5035377;28;20033;-88
2022/07/14 08:00:25;;;;;;;7.38;4.50;;;;;;;29.04;30.36;101594.47;5022418;28;20087;-89
2022/07/14 08:02:52;;;;;;;5.05;2.78;;;;;;;29.10;29.13;101583.13;5019376;28;20073;-81
2022/07/14 08:05:22;;;;;;;8.52;5.47;;;;;;;29.25;29.63;101591.22;5018776;28;20033;-85
2022/07/14 08:07:48;;;;;;;6.60;2.90;;;;;;;29.23;29.08;101583.41;5019606;28;20044;-86
2022/07/14 08:10:14;;;;;;;3.88;2.72;;;;;;;29.17;28.72;101581.41;5005136;28;20028;-85
2022/07/14 08:12:40;;;;;;;7.35;2.83;;;;;;;29.28;29.68;101583.69;5004685;28;20128;-92
2022/07/14 08:15:06;;;;;;;11.48;3.50;;;;;;;29.38;30.04;101580.81;5021736;28;20108;-90
2022/07/14 08:17:32;;;;;;;4.88;2.92;;;;;;;29.54;29.17;101574.59;5028556;28;20130;-91
2022/07/14 08:19:57;;;;;;;7.85;3.10;;;;;;;29.45;28.27;101548.97;5009997;28;20139;-93
2022/07/14 08:22:26;;;;;;;3.85;2.70;;;;;;;29.50;27.28;101546.63;5035332;28;20036;-85
2022/07/14 08:24:52;;;;;;;4.50;2.60;;;;;;;29.76;27.98;101573.78;5020201;28;20044;-89
2022/07/14 08:27:18;;;;;;;5.88;3.17;;;;;;;29.75;27.90;101573.97;5022544;28;20029;-86
2022/07/14 08:29:43;;;;;;;9.88;4.05;;;;;;;29.80;27.29;101564.44;5020648;28;20025;-83
2022/07/14 08:32:09;;;;;;;5.95;2.80;;;;;;;29.93;27.57;101563.81;5020761;28;20045;-86
2022/07/14 08:34:34;;;;;;;6.80;3.17;;;;;;;30.06;27.50;101568.53;5022209;28;20112;-81
2022/07/14 08:37:00;;;;;;;8.43;3.33;;;;;;;30.22;27.19;101555.09;5037075;28;20127;-89
2022/07/14 08:39:28;;;;;;;6.72;2.80;;;;;;;30.33;26.90;101538.63;5028616;28;20063;-83
2022/07/14 08:41:57;;;;;;;10.77;4.78;;;;;;;30.44;27.64;101546.19;5018807;28;20037;-81
2022/07/14 08:44:23;;;;;;;4.28;3.13;;;;;;;30.46;27.79;101540.66;5013238;28;20040;-88
2022/07/14 08:46:49;;;;;;;6.00;2.80;;;;;;;30.62;25.57;101537.81;5019812;28;20052;-84
2022/07/14 08:49:15;;;;;;;6.80;3.88;;;;;;;30.80;26.52;101548.16;5022172;28;20037;-83
2022/07/14 08:51:40;;;;;;;4.65;2.90;;;;;;;30.81;26.40;101531.94;5002950;28;20140;-84
2022/07/14 08:54:09;;;;;;;3.80;2.60;;;;;;;31.12;26.56;101555.75;4999011;28;20120;-82
2022/07/14 08:56:35;;;;;;;4.47;2.80;;;;;;;31.05;25.98;101527.28;5012739;28;20021;-84
2022/07/14 08:59:00;;;;;;;5.75;2.95;;;;;;;31.46;25.66;101551.63;5027701;28;20033;-90
2022/07/14 09:01:26;;;;;;;3.20;2.83;;;;;;;31.58;25.00;101557.31;5017007;28;20037;-91
2022/07/14 09:03:53;;;;;;;11.00;9.45;;;;;;;31.69;26.24;101551.47;5005401;28;20520;-83
2022/07/14 09:06:50;;;;;;;3.70;2.80;;;;;;;31.84;24.00;101548.72;5021959;28;20064;-86
2022/07/14 09:09:21;;;;;;;5.63;2.72;;;;;;;31.83;24.25;101542.56;5031414;28;20031;-82
2022/07/14 09:11:57;;;;;;;4.82;3.42;;;;;;;32.01;24.81;101543.94;5046643;28;20048;-79
2022/07/14 09:14:24;;;;;;;7.32;3.95;;;;;;;32.02;25.22;101546.41;5040762;28;20040;-81
2022/07/14 09:16:50;;;;;;;6.72;3.63;;;;;;;32.08;24.80;101540.28;5037697;28;20095;-81
2022/07/14 09:19:15;;;;;;;4.55;2.67;;;;;;;31.94;24.97;101522.47;5038275;28;20057;-80
2022/07/14 09:21:46;;;;;;;8.57;2.75;;;;;;;32.04;25.19;101536.34;5021125;28;20496;-80
2022/07/14 09:24:14;;;;;;;5.93;3.00;;;;;;;32.17;25.38;101536.47;5022108;28;20104;-82
2022/07/14 09:26:51;;;;;;;5.97;2.92;;;;;;;32.30;24.85;101516.16;5023757;28;20083;-80
2022/07/14 09:29:19;;;;;;;5.50;2.95;;;;;;;32.24;24.76;101521.25;5005078;28;20034;-81
2022/07/14 09:31:44;;;;;;;5.68;2.90;;;;;;;32.42;25.00;101519.94;5039817;28;20029;-83
2022/07/14 09:34:12;;;;;;;4.05;3.03;;;;;;;32.62;26.20;101520.88;5007075;28;20448;-82
2022/07/14 09:36:38;;;;;;;5.38;2.80;;;;;;;32.73;24.93;101506.09;5015611;28;20037;-82
2022/07/14 09:39:08;;;;;;;4.90;2.70;;;;;;;32.90;24.08;101509.28;5007297;28;20041;-81
2022/07/14 09:41:47;;;;;;;4.72;2.83;;;;;;;32.88;23.32;101500.63;5014712;28;20026;-88
2022/07/14 09:44:14;;;;;;;5.57;2.85;;;;;;;32.96;23.48;101500.47;5035054;28;20037;-90
2022/07/14 09:46:49;;;;;;;5.40;2.50;;;;;;;33.15;24.01;101505.06;5003428;28;20037;-84
2022/07/14 09:49:15;;;;;;;3.85;3.15;;;;;;;33.21;24.31;101498.03;5019161;28;20037;-83
2022/07/14 09:51:57;;;;;;;5.28;3.00;;;;;;;33.18;22.34;101499.28;5018597;28;20175;-84
2022/07/14 09:54:46;;;;;;;5.28;2.75;;;;;;;32.98;23.02;101503.75;5005689;28;20037;-82
2022/07/14 09:57:11;;;;;;;6.00;2.90;;;;;;;33.26;23.33;101501.78;5013932;28;20422;-87
2022/07/14 09:59:45;;;;;;;5.55;2.75;;;;;;;33.61;22.76;101488.22;5020005;28;20029;-84
2022/07/14 10:02:15;;;;;;;5.43;2.83;;;;;;;33.86;21.89;101485.75;5022794;28;20486;-82
2022/07/14 10:04:40;;;;;;;2.90;2.40;;;;;;;33.83;21.34;101454.78;5037645;28;20060;-84
2022/07/14 10:07:06;;;;;;;6.78;2.80;;;;;;;34.06;21.59;101458.91;5022021;28;20030;-89
2022/07/14 10:09:32;;;;;;;6.15;2.90;;;;;;;34.22;21.18;101482.63;5048156;28;20041;-91
2022/07/14 10:12:00;;;;;;;6.43;3.10;;;;;;;34.30;21.28;101482.38;5023031;28;20425;-86
2022/07/14 10:14:26;;;;;;;5.32;2.63;;;;;;;34.24;21.06;101480.53;5037978;28;20061;-87
2022/07/14 10:16:51;;;;;;;5.68;2.72;;;;;;;34.30;22.44;101477.00;5020765;28;20080;-84
2022/07/14 10:19:18;;;;;;;5.15;2.47;;;;;;;34.33;20.85;101460.47;5032475;28;20099;-86
2022/07/14 10:21:45;;;;;;;4.95;2.60;;;;;;;34.47;21.55;101458.59;5030043;28;20520;-84
2022/07/14 10:24:11;;;;;;;3.50;2.50;;;;;;;34.56;20.54;101448.44;5015964;28;20036;-89
2022/07/14 10:26:38;;;;;;;3.45;2.42;;;;;;;34.64;21.14;101461.63;5020631;28;20502;-86
2022/07/14 10:29:04;;;;;;;4.38;2.55;;;;;;;34.62;20.63;101458.34;5024213;28;20037;-83
2022/07/14 10:31:55;;;;;;;11.02;2.60;;;;;;;34.80;20.34;101455.75;4986678;28;20034;-83
2022/07/14 10:34:36;;;;;;;4.10;2.47;;;;;;;34.66;19.92;101462.25;5019532;28;20033;-83
2022/07/14 10:37:24;;;;;;;4.63;2.80;;;;;;;34.59;20.88;101454.19;5034994;28;20029;-94
2022/07/14 10:40:16;;;;;;;8.38;2.70;;;;;;;34.57;20.70;101450.91;5029793;28;20033;-82
2022/07/14 10:43:05;;;;;;;4.47;2.30;;;;;;;34.65;20.33;101431.03;5015303;28;20128;-84
2022/07/14 10:45:31;;;;;;;6.65;2.20;;;;;;;34.72;20.72;101427.28;5013646;28;20036;-88
2022/07/14 10:47:56;;;;;;;3.03;2.30;;;;;;;34.78;19.94;101421.03;5012933;28;20041;-85
2022/07/14 10:50:28;;;;;;;5.15;2.20;;;;;;;34.83;20.03;101422.25;5011916;28;20068;-86
2022/07/14 10:52:54;;;;;;;4.72;2.35;;;;;;;34.59;19.37;101415.75;5011925;28;20127;-80
2022/07/14 10:55:23;;;;;;;4.95;2.22;;;;;;;34.72;19.53;101437.22;5028187;28;20084;-85
2022/07/14 10:58:04;;;;;;;3.50;2.45;;;;;;;34.73;20.09;101434.31;5028090;28;20112;-86
2022/07/14 11:00:44;;;;;;;3.63;2.28;;;;;;;34.79;19.08;101429.91;5028874;28;20575;-84
2022/07/14 11:03:19;;;;;;;5.10;2.20;;;;;;;34.95;18.35;101416.00;5038570;28;20029;-84
2022/07/14 11:06:09;;;;;;;2.95;1.90;;;;;;;34.96;18.20;101428.41;5033142;28;20166;-88
2022/07/14 11:08:38;;;;;;;3.22;2.13;;;;;;;34.97;19.29;101416.59;5039720;28;20068;-87
2022/07/14 11:11:10;;;;;;;5.00;2.08;;;;;;;35.05;18.80;101410.97;5028207;28;20038;-86
2022/07/14 11:14:06;;;;;;;5.75;2.28;;;;;;;34.82;19.63;101399.94;5029570;28;20083;-85
2022/07/14 11:16:47;;;;;;;4.20;2.40;;;;;;;34.57;20.12;101409.78;4993675;28;20037;-90
2022/07/14 11:19:30;;;;;;;4.90;2.40;;;;;;;34.62;20.20;101380.41;5047085;28;20211;-90
2022/07/14 11:22:11;;;;;;;4.00;2.20;;;;;;;34.92;20.13;101397.63;5024487;28;20037;-85
2022/07/14 11:24:46;;;;;;;4.90;2.22;;;;;;;35.11;18.90;101403.09;5029854;28;20033;-86
2022/07/14 11:27:27;;;;;;;3.20;2.10;;;;;;;35.02;19.09;101406.03;5030702;28;20090;-86
2022/07/14 11:29:56;;;;;;;4.30;2.30;;;;;;;35.00;19.05;101401.88;5029024;28;20025;-87
2022/07/14 11:32:33;;;;;;;4.70;2.28;;;;;;;35.15;19.78;101407.78;5012856;28;20064;-91
2022/07/14 11:37:59;;;;;;;2.47;2.00;;;;;;;35.49;18.16;101393.03;5012826;28;20124;-82
2022/07/14 11:40:42;;;;;;;3.55;2.00;;;;;;;35.60;18.16;101386.94;5027125;28;20513;-84
2022/07/14 11:43:26;;;;;;;2.97;2.00;;;;;;;35.70;18.22;101391.00;5028950;28;20486;-82
2022/07/14 11:45:59;;;;;;;5.43;2.20;;;;;;;35.70;18.21;101377.56;5026572;28;20037;-89
2022/07/14 11:48:29;;;;;;;4.43;2.03;;;;;;;35.38;18.24;101368.69;5010886;28;20490;-82
2022/07/14 11:51:29;;;;;;;3.75;2.10;;;;;;;35.52;18.81;101379.16;5010041;28;20025;-82
2022/07/14 11:54:00;;;;;;;5.55;3.78;;;;;;;35.58;18.24;101378.25;5026984;28;20025;-81
2022/07/14 11:56:26;;;;;;;6.53;2.35;;;;;;;35.45;18.63;101383.78;5010919;28;20033;-82
2022/07/14 11:58:52;;;;;;;4.28;2.10;;;;;;;35.40;18.11;101372.88;5027390;28;20036;-84
2022/07/14 12:01:18;;;;;;;5.38;2.13;;;;;;;35.47;17.88;101379.00;5026891;28;20065;-82
2022/07/14 12:03:44;;;;;;;4.13;2.17;;;;;;;35.47;17.77;101360.16;5027185;28;20025;-84
2022/07/14 12:06:10;;;;;;;2.90;1.80;;;;;;;35.52;17.60;101359.50;5010424;28;20402;-84
2022/07/14 12:08:39;;;;;;;8.15;2.20;;;;;;;35.76;17.33;101363.19;5010070;28;20145;-87
2022/07/14 12:11:08;;;;;;;4.63;1.92;;;;;;;35.99;17.20;101366.06;5011303;28;20025;-84
2022/07/14 12:13:51;;;;;;;7.28;2.10;;;;;;;36.08;17.12;101366.56;5012735;28;20109;-84
2022/07/14 12:16:17;;;;;;;5.75;1.90;;;;;;;35.80;17.14;101353.63;5028975;28;20061;-90
2022/07/14 12:18:43;;;;;;;5.03;1.75;;;;;;;35.73;17.35;101353.69;5012050;28;20183;-86
2022/07/14 12:21:08;;;;;;;3.22;1.90;;;;;;;35.80;16.83;101357.13;5012659;28;20105;-89
2022/07/14 12:23:35;;;;;;;5.90;2.03;;;;;;;35.66;16.60;101357.50;5028832;28;20025;-82
2022/07/14 12:26:01;;;;;;;2.70;1.90;;;;;;;35.74;17.27;101349.13;5012300;28;20030;-84
2022/07/14 12:28:27;;;;;;;3.13;2.15;;;;;;;35.79;16.60;101336.66;5012340;28;20026;-84
2022/07/14 12:30:54;;;;;;;4.68;1.90;;;;;;;35.58;16.48;101345.97;5012095;28;20079;-83
2022/07/14 12:33:32;;;;;;;3.50;1.90;;;;;;;35.64;17.05;101337.00;5028446;28;20116;-87
2022/07/14 12:35:59;;;;;;;3.53;2.00;;;;;;;35.68;17.21;101331.16;4995819;28;20060;-84
2022/07/14 12:38:25;;;;;;;3.47;1.92;;;;;;;35.81;17.42;101336.44;5006699;28;20029;-84
2022/07/14 12:40:59;;;;;;;4.03;2.10;;;;;;;35.78;17.50;101340.38;5006917;28;20033;-81
2022/07/14 12:43:25;;;;;;;3.00;1.80;;;;;;;35.79;17.28;101333.09;5004227;28;20422;-84
2022/07/14 12:46:10;;;;;;;3.63;2.08;;;;;;;35.78;18.43;101334.16;5020291;28;20021;-82
2022/07/14 12:48:48;;;;;;;4.93;2.30;;;;;;;35.81;18.44;101334.56;5037070;28;20049;-82
2022/07/14 12:51:16;;;;;;;4.47;1.95;;;;;;;35.73;17.77;101321.38;5029755;28;20025;-82
2022/07/14 12:54:04;;;;;;;3.33;2.08;;;;;;;35.74;17.98;101332.97;5033120;28;20054;-84
2022/07/14 12:56:31;;;;;;;6.85;2.17;;;;;;;35.47;18.23;101305.53;5015948;28;20029;-84
2022/07/14 12:58:59;;;;;;;3.63;2.20;;;;;;;35.26;18.14;101317.50;5032186;28;20491;-79
2022/07/14 13:01:25;;;;;;;5.40;2.30;;;;;;;35.20;18.55;101321.06;5014229;28;20029;-81
2022/07/14 13:04:01;;;;;;;6.30;2.20;;;;;;;35.26;18.20;101321.00;5035179;28;20030;-86
2022/07/14 13:06:27;;;;;;;8.95;2.33;;;;;;;35.14;17.99;101321.97;5034682;28;20510;-84
2022/07/14 13:08:53;;;;;;;5.38;2.10;;;;;;;34.85;18.41;101308.09;4995667;28;20501;-82
2022/07/14 13:11:18;;;;;;;3.25;2.00;;;;;;;34.79;18.49;101319.72;5030160;28;20025;-80
2022/07/14 13:13:49;;;;;;;4.15;2.47;;;;;;;34.73;19.08;101320.59;5014718;28;20041;-79
2022/07/14 13:16:18;;;;;;;5.97;2.30;;;;;;;34.55;18.75;101315.97;5016497;28;20049;-80
2022/07/14 13:19:09;;;;;;;6.10;2.22;;;;;;;34.40;19.09;101321.63;5030708;28;20495;-79
2022/07/14 13:21:58;;;;;;;3.03;1.88;;;;;;;34.32;20.04;101308.44;5014109;28;20405;-80
2022/07/14 13:24:24;;;;;;;4.43;2.05;;;;;;;34.21;19.25;101309.09;5000641;28;20574;-79
2022/07/14 13:26:59;;;;;;;5.22;2.40;;;;;;;34.20;19.71;101312.81;5032545;28;20100;-79
2022/07/14 13:29:26;;;;;;;4.28;2.20;;;;;;;33.82;19.23;101297.44;5032635;28;20505;-87
2022/07/14 13:31:51;;;;;;;2.95;2.30;;;;;;;33.92;19.87;101280.94;5015214;28;20025;-87
2022/07/14 13:34:17;;;;;;;5.93;2.67;;;;;;;33.95;19.73;101288.56;5014427;28;20091;-85
2022/07/14 13:36:43;;;;;;;3.80;2.28;;;;;;;33.93;20.49;101278.06;5031646;28;20037;-88
2022/07/14 13:39:08;;;;;;;3.38;2.10;;;;;;;33.94;19.83;101295.81;5013782;28;20044;-81
2022/07/14 13:41:34;;;;;;;5.15;2.33;;;;;;;33.88;20.08;101291.28;5032703;28;20163;-83
2022/07/14 13:44:00;;;;;;;5.10;2.70;;;;;;;33.84;19.98;101283.84;5031506;28;20029;-80
2022/07/14 13:46:26;;;;;;;3.90;2.22;;;;;;;33.77;19.74;101278.50;5047610;28;20071;-81
2022/07/14 13:48:51;;;;;;;3.45;2.40;;;;;;;33.81;20.13;101273.50;5028644;28;20092;-85
2022/07/14 13:54:01;;;;;;;4.50;2.20;;;;;;;33.52;19.95;101275.66;5029693;28;20567;-86
2022/07/14 13:56:27;;;;;;;3.53;2.30;;;;;;;33.42;20.04;101275.28;5031294;28;20025;-86
2022/07/14 13:58:53;;;;;;;4.13;2.40;;;;;;;33.18;20.72;101263.34;5030466;28;20048;-83
2022/07/14 14:01:19;;;;;;;5.10;2.20;;;;;;;33.18;20.99;101267.88;5047593;28;20018;-83
2022/07/14 14:03:46;;;;;;;6.07;2.45;;;;;;;33.06;21.13;101262.34;5047239;28;20057;-84
2022/07/14 14:06:13;;;;;;;4.38;2.35;;;;;;;33.13;21.37;101260.44;5032058;28;20021;-84
2022/07/14 14:08:38;;;;;;;3.55;2.50;;;;;;;33.02;21.63;101240.47;5031004;28;20034;-83
2022/07/14 14:11:04;;;;;;;3.72;2.30;;;;;;;33.08;21.07;101252.22;5014380;28;20037;-83
2022/07/14 14:13:30;;;;;;;5.32;2.42;;;;;;;33.09;21.61;101252.00;5014587;28;20429;-79
2022/07/14 14:15:56;;;;;;;3.67;2.20;;;;;;;32.85;21.59;101241.13;5029820;28;20034;-79
2022/07/14 14:18:22;;;;;;;4.80;2.38;;;;;;;32.78;21.75;101230.34;5030919;28;20049;-79
2022/07/14 14:20:47;;;;;;;3.75;2.47;;;;;;;32.88;21.48;101251.41;5025112;28;20071;-84
